sensor_id;sensor_type;location;lat;lon;timestamp;temperature;humidity
77693;SHT31;66984;47.404;18.836;2023-04-03T00:00:14;7.89;59.02
77693;SHT31;66984;47.404;18.836;2023-04-03T00:01:17;7.91;59.00
77693;SHT31;66984;47.404;18.836;2023-04-03T00:02:21;7.91;59.14
77693;SHT31;66984;47.404;18.836;2023-04-03T00:03:24;7.92;59.02
77693;SHT31;66984;47.404;18.836;2023-04-03T00:04:27;7.91;58.94
77693;SHT31;66984;47.404;18.836;2023-04-03T00:05:30;7.93;59.04
77693;SHT31;66984;47.404;18.836;2023-04-03T00:06:33;7.86;58.92
77693;SHT31;66984;47.404;18.836;2023-04-03T00:07:36;7.91;59.09
77693;SHT31;66984;47.404;18.836;2023-04-03T00:08:40;7.95;59.12
77693;SHT31;66984;47.404;18.836;2023-04-03T00:09:43;7.93;58.87
77693;SHT31;66984;47.404;18.836;2023-04-03T00:10:46;7.95;59.20
77693;SHT31;66984;47.404;18.836;2023-04-03T00:11:49;7.96;58.78
77693;SHT31;66984;47.404;18.836;2023-04-03T00:12:52;7.98;58.76
77693;SHT31;66984;47.404;18.836;2023-04-03T00:13:55;7.92;58.19
77693;SHT31;66984;47.404;18.836;2023-04-03T00:14:58;7.88;58.56
77693;SHT31;66984;47.404;18.836;2023-04-03T00:16:01;7.89;58.57
77693;SHT31;66984;47.404;18.836;2023-04-03T00:17:05;7.91;58.28
77693;SHT31;66984;47.404;18.836;2023-04-03T00:18:09;7.89;58.11
77693;SHT31;66984;47.404;18.836;2023-04-03T00:19:12;7.85;58.44
77693;SHT31;66984;47.404;18.836;2023-04-03T00:20:15;7.81;58.52
77693;SHT31;66984;47.404;18.836;2023-04-03T00:21:18;7.77;58.51
77693;SHT31;66984;47.404;18.836;2023-04-03T00:22:21;7.75;58.70
77693;SHT31;66984;47.404;18.836;2023-04-03T00:23:24;7.82;58.81
77693;SHT31;66984;47.404;18.836;2023-04-03T00:24:27;7.81;58.79
77693;SHT31;66984;47.404;18.836;2023-04-03T00:25:30;7.82;58.94
77693;SHT31;66984;47.404;18.836;2023-04-03T00:26:33;7.81;58.99
77693;SHT31;66984;47.404;18.836;2023-04-03T00:27:37;7.81;58.63
77693;SHT31;66984;47.404;18.836;2023-04-03T00:28:40;7.78;58.71
77693;SHT31;66984;47.404;18.836;2023-04-03T00:29:43;7.85;58.35
77693;SHT31;66984;47.404;18.836;2023-04-03T00:30:46;7.81;58.41
77693;SHT31;66984;47.404;18.836;2023-04-03T00:31:50;7.82;58.69
77693;SHT31;66984;47.404;18.836;2023-04-03T00:32:54;7.82;58.72
77693;SHT31;66984;47.404;18.836;2023-04-03T00:33:58;7.83;58.74
77693;SHT31;66984;47.404;18.836;2023-04-03T00:35:01;7.89;58.98
77693;SHT31;66984;47.404;18.836;2023-04-03T00:36:10;7.86;58.50
77693;SHT31;66984;47.404;18.836;2023-04-03T00:37:14;7.89;58.59
77693;SHT31;66984;47.404;18.836;2023-04-03T00:38:17;7.91;58.81
77693;SHT31;66984;47.404;18.836;2023-04-03T00:39:20;7.91;58.32
77693;SHT31;66984;47.404;18.836;2023-04-03T00:40:26;7.95;58.59
77693;SHT31;66984;47.404;18.836;2023-04-03T00:41:29;7.91;58.68
77693;SHT31;66984;47.404;18.836;2023-04-03T00:42:32;7.86;58.57
77693;SHT31;66984;47.404;18.836;2023-04-03T00:43:35;7.88;58.47
77693;SHT31;66984;47.404;18.836;2023-04-03T00:45:49;7.83;58.30
77693;SHT31;66984;47.404;18.836;2023-04-03T00:46:52;7.83;58.23
77693;SHT31;66984;47.404;18.836;2023-04-03T00:47:55;7.86;58.33
77693;SHT31;66984;47.404;18.836;2023-04-03T00:49:00;7.88;58.34
77693;SHT31;66984;47.404;18.836;2023-04-03T00:50:03;7.86;58.38
77693;SHT31;66984;47.404;18.836;2023-04-03T00:51:13;7.86;58.28
77693;SHT31;66984;47.404;18.836;2023-04-03T00:52:18;7.82;57.99
77693;SHT31;66984;47.404;18.836;2023-04-03T00:53:40;7.85;58.43
77693;SHT31;66984;47.404;18.836;2023-04-03T00:54:46;7.86;58.19
77693;SHT31;66984;47.404;18.836;2023-04-03T00:55:50;7.86;57.89
77693;SHT31;66984;47.404;18.836;2023-04-03T00:56:56;7.85;57.98
77693;SHT31;66984;47.404;18.836;2023-04-03T00:58:01;7.86;57.96
77693;SHT31;66984;47.404;18.836;2023-04-03T00:59:09;7.86;58.10
77693;SHT31;66984;47.404;18.836;2023-04-03T01:00:15;7.88;57.95
77693;SHT31;66984;47.404;18.836;2023-04-03T01:01:22;7.82;58.13
77693;SHT31;66984;47.404;18.836;2023-04-03T01:02:26;7.79;58.05
77693;SHT31;66984;47.404;18.836;2023-04-03T01:03:29;7.83;58.30
77693;SHT31;66984;47.404;18.836;2023-04-03T01:04:39;7.85;58.56
77693;SHT31;66984;47.404;18.836;2023-04-03T01:05:42;7.85;58.19
77693;SHT31;66984;47.404;18.836;2023-04-03T01:06:45;7.83;58.02
77693;SHT31;66984;47.404;18.836;2023-04-03T01:07:49;7.81;58.48
77693;SHT31;66984;47.404;18.836;2023-04-03T01:08:54;7.85;58.11
77693;SHT31;66984;47.404;18.836;2023-04-03T01:10:00;7.77;58.05
77693;SHT31;66984;47.404;18.836;2023-04-03T01:11:03;7.78;57.94
77693;SHT31;66984;47.404;18.836;2023-04-03T01:12:34;7.82;58.18
77693;SHT31;66984;47.404;18.836;2023-04-03T01:13:37;7.82;58.38
77693;SHT31;66984;47.404;18.836;2023-04-03T01:14:40;7.81;58.37
77693;SHT31;66984;47.404;18.836;2023-04-03T01:15:45;7.85;57.95
77693;SHT31;66984;47.404;18.836;2023-04-03T01:16:54;7.86;57.84
77693;SHT31;66984;47.404;18.836;2023-04-03T01:17:58;7.86;57.80
77693;SHT31;66984;47.404;18.836;2023-04-03T01:19:03;7.85;57.98
77693;SHT31;66984;47.404;18.836;2023-04-03T01:24:42;7.86;58.07
77693;SHT31;66984;47.404;18.836;2023-04-03T01:25:54;7.83;58.48
77693;SHT31;66984;47.404;18.836;2023-04-03T01:26:58;7.81;57.82
77693;SHT31;66984;47.404;18.836;2023-04-03T01:28:01;7.81;57.72
77693;SHT31;66984;47.404;18.836;2023-04-03T01:29:04;7.79;58.12
77693;SHT31;66984;47.404;18.836;2023-04-03T01:30:07;7.71;57.83
77693;SHT31;66984;47.404;18.836;2023-04-03T01:32:33;7.70;57.91
77693;SHT31;66984;47.404;18.836;2023-04-03T01:33:37;7.71;58.06
77693;SHT31;66984;47.404;18.836;2023-04-03T01:34:40;7.64;58.10
77693;SHT31;66984;47.404;18.836;2023-04-03T01:35:43;7.62;57.58
77693;SHT31;66984;47.404;18.836;2023-04-03T01:36:46;7.65;57.79
77693;SHT31;66984;47.404;18.836;2023-04-03T01:37:49;7.64;58.02
77693;SHT31;66984;47.404;18.836;2023-04-03T01:38:53;7.58;57.84
77693;SHT31;66984;47.404;18.836;2023-04-03T01:39:56;7.62;58.04
77693;SHT31;66984;47.404;18.836;2023-04-03T01:40:59;7.61;57.96
77693;SHT31;66984;47.404;18.836;2023-04-03T01:42:02;7.62;58.15
77693;SHT31;66984;47.404;18.836;2023-04-03T01:43:07;7.60;58.11
77693;SHT31;66984;47.404;18.836;2023-04-03T01:44:10;7.62;58.36
77693;SHT31;66984;47.404;18.836;2023-04-03T01:45:13;7.61;58.32
77693;SHT31;66984;47.404;18.836;2023-04-03T01:46:16;7.64;58.45
77693;SHT31;66984;47.404;18.836;2023-04-03T01:47:20;7.65;58.51
77693;SHT31;66984;47.404;18.836;2023-04-03T01:48:23;7.68;58.48
77693;SHT31;66984;47.404;18.836;2023-04-03T01:49:26;7.65;58.31
77693;SHT31;66984;47.404;18.836;2023-04-03T01:50:29;7.67;58.27
77693;SHT31;66984;47.404;18.836;2023-04-03T01:51:31;7.68;58.03
77693;SHT31;66984;47.404;18.836;2023-04-03T01:52:35;7.70;58.23
77693;SHT31;66984;47.404;18.836;2023-04-03T01:53:38;7.71;58.66
77693;SHT31;66984;47.404;18.836;2023-04-03T01:54:41;7.70;58.10
77693;SHT31;66984;47.404;18.836;2023-04-03T01:55:44;7.70;57.98
77693;SHT31;66984;47.404;18.836;2023-04-03T01:56:47;7.68;58.12
77693;SHT31;66984;47.404;18.836;2023-04-03T01:57:50;7.64;58.11
77693;SHT31;66984;47.404;18.836;2023-04-03T01:58:53;7.62;58.26
77693;SHT31;66984;47.404;18.836;2023-04-03T01:59:56;7.64;58.55
77693;SHT31;66984;47.404;18.836;2023-04-03T02:00:59;7.54;58.37
77693;SHT31;66984;47.404;18.836;2023-04-03T02:02:02;7.54;58.55
77693;SHT31;66984;47.404;18.836;2023-04-03T02:03:05;7.54;58.57
77693;SHT31;66984;47.404;18.836;2023-04-03T02:04:09;7.50;58.45
77693;SHT31;66984;47.404;18.836;2023-04-03T02:05:12;7.48;58.77
77693;SHT31;66984;47.404;18.836;2023-04-03T02:06:15;7.41;58.81
77693;SHT31;66984;47.404;18.836;2023-04-03T02:07:18;7.38;58.87
77693;SHT31;66984;47.404;18.836;2023-04-03T02:08:21;7.33;58.97
77693;SHT31;66984;47.404;18.836;2023-04-03T02:09:24;7.33;59.11
77693;SHT31;66984;47.404;18.836;2023-04-03T02:10:27;7.34;59.23
77693;SHT31;66984;47.404;18.836;2023-04-03T02:11:30;7.35;59.33
77693;SHT31;66984;47.404;18.836;2023-04-03T02:12:33;7.34;59.23
77693;SHT31;66984;47.404;18.836;2023-04-03T02:13:36;7.31;59.52
77693;SHT31;66984;47.404;18.836;2023-04-03T02:14:39;7.35;59.51
77693;SHT31;66984;47.404;18.836;2023-04-03T02:15:42;7.30;59.44
77693;SHT31;66984;47.404;18.836;2023-04-03T02:16:45;7.34;59.32
77693;SHT31;66984;47.404;18.836;2023-04-03T02:17:48;7.30;59.50
77693;SHT31;66984;47.404;18.836;2023-04-03T02:18:51;7.28;59.43
77693;SHT31;66984;47.404;18.836;2023-04-03T02:19:54;7.28;59.70
77693;SHT31;66984;47.404;18.836;2023-04-03T02:20:57;7.33;59.75
77693;SHT31;66984;47.404;18.836;2023-04-03T02:22:00;7.31;59.83
77693;SHT31;66984;47.404;18.836;2023-04-03T02:23:03;7.30;59.73
77693;SHT31;66984;47.404;18.836;2023-04-03T02:24:06;7.33;59.77
77693;SHT31;66984;47.404;18.836;2023-04-03T02:25:09;7.33;59.67
77693;SHT31;66984;47.404;18.836;2023-04-03T02:26:15;7.31;59.52
77693;SHT31;66984;47.404;18.836;2023-04-03T02:27:18;7.31;59.78
77693;SHT31;66984;47.404;18.836;2023-04-03T02:28:21;7.33;59.49
77693;SHT31;66984;47.404;18.836;2023-04-03T02:29:24;7.26;59.83
77693;SHT31;66984;47.404;18.836;2023-04-03T02:30:27;7.27;59.95
77693;SHT31;66984;47.404;18.836;2023-04-03T02:31:30;7.26;59.67
77693;SHT31;66984;47.404;18.836;2023-04-03T02:32:33;7.28;59.75
77693;SHT31;66984;47.404;18.836;2023-04-03T02:33:36;7.30;59.87
77693;SHT31;66984;47.404;18.836;2023-04-03T02:34:39;7.27;59.83
77693;SHT31;66984;47.404;18.836;2023-04-03T02:35:43;7.23;59.80
77693;SHT31;66984;47.404;18.836;2023-04-03T02:36:45;7.19;59.75
77693;SHT31;66984;47.404;18.836;2023-04-03T02:37:48;7.16;59.95
77693;SHT31;66984;47.404;18.836;2023-04-03T02:38:51;7.10;60.06
77693;SHT31;66984;47.404;18.836;2023-04-03T02:39:54;7.12;60.32
77693;SHT31;66984;47.404;18.836;2023-04-03T02:41:01;7.07;60.13
77693;SHT31;66984;47.404;18.836;2023-04-03T02:42:05;7.07;60.49
77693;SHT31;66984;47.404;18.836;2023-04-03T02:43:07;7.00;60.56
77693;SHT31;66984;47.404;18.836;2023-04-03T02:44:11;7.04;60.72
77693;SHT31;66984;47.404;18.836;2023-04-03T02:45:14;7.02;60.80
77693;SHT31;66984;47.404;18.836;2023-04-03T02:46:17;6.95;60.59
77693;SHT31;66984;47.404;18.836;2023-04-03T02:47:19;6.95;60.69
77693;SHT31;66984;47.404;18.836;2023-04-03T02:48:24;6.92;60.56
77693;SHT31;66984;47.404;18.836;2023-04-03T02:49:27;6.95;60.73
77693;SHT31;66984;47.404;18.836;2023-04-03T02:50:30;6.99;60.87
77693;SHT31;66984;47.404;18.836;2023-04-03T02:51:33;7.02;60.97
77693;SHT31;66984;47.404;18.836;2023-04-03T02:52:36;7.06;60.60
77693;SHT31;66984;47.404;18.836;2023-04-03T02:53:39;7.07;60.38
77693;SHT31;66984;47.404;18.836;2023-04-03T02:54:42;7.09;60.60
77693;SHT31;66984;47.404;18.836;2023-04-03T02:55:45;7.09;60.70
77693;SHT31;66984;47.404;18.836;2023-04-03T02:56:49;7.12;60.65
77693;SHT31;66984;47.404;18.836;2023-04-03T02:57:53;7.06;60.65
77693;SHT31;66984;47.404;18.836;2023-04-03T02:58:56;7.09;60.67
77693;SHT31;66984;47.404;18.836;2023-04-03T02:59:59;7.06;60.69
77693;SHT31;66984;47.404;18.836;2023-04-03T03:01:03;7.04;60.93
77693;SHT31;66984;47.404;18.836;2023-04-03T03:02:08;7.04;60.87
77693;SHT31;66984;47.404;18.836;2023-04-03T03:03:12;7.03;60.97
77693;SHT31;66984;47.404;18.836;2023-04-03T03:04:16;6.97;60.91
77693;SHT31;66984;47.404;18.836;2023-04-03T03:05:19;6.97;61.14
77693;SHT31;66984;47.404;18.836;2023-04-03T03:06:22;6.97;61.04
77693;SHT31;66984;47.404;18.836;2023-04-03T03:07:25;6.89;61.34
77693;SHT31;66984;47.404;18.836;2023-04-03T03:08:28;6.92;61.56
77693;SHT31;66984;47.404;18.836;2023-04-03T03:09:32;6.89;61.33
77693;SHT31;66984;47.404;18.836;2023-04-03T03:10:35;6.92;61.54
77693;SHT31;66984;47.404;18.836;2023-04-03T03:11:39;6.92;61.64
77693;SHT31;66984;47.404;18.836;2023-04-03T03:12:41;6.96;61.63
77693;SHT31;66984;47.404;18.836;2023-04-03T03:13:44;6.82;61.97
77693;SHT31;66984;47.404;18.836;2023-04-03T03:14:48;6.91;61.76
77693;SHT31;66984;47.404;18.836;2023-04-03T03:15:50;6.79;61.66
77693;SHT31;66984;47.404;18.836;2023-04-03T03:16:53;6.81;61.79
77693;SHT31;66984;47.404;18.836;2023-04-03T03:17:57;6.79;61.84
77693;SHT31;66984;47.404;18.836;2023-04-03T03:18:59;6.81;62.05
77693;SHT31;66984;47.404;18.836;2023-04-03T03:20:04;6.82;62.21
77693;SHT31;66984;47.404;18.836;2023-04-03T03:21:09;6.82;61.97
77693;SHT31;66984;47.404;18.836;2023-04-03T03:22:13;6.83;61.94
77693;SHT31;66984;47.404;18.836;2023-04-03T03:23:16;6.86;62.14
77693;SHT31;66984;47.404;18.836;2023-04-03T03:24:19;6.91;62.16
77693;SHT31;66984;47.404;18.836;2023-04-03T03:25:21;6.91;62.12
77693;SHT31;66984;47.404;18.836;2023-04-03T03:26:25;6.95;61.82
77693;SHT31;66984;47.404;18.836;2023-04-03T03:27:28;6.96;61.59
77693;SHT31;66984;47.404;18.836;2023-04-03T03:28:31;6.99;61.85
77693;SHT31;66984;47.404;18.836;2023-04-03T03:29:34;6.99;61.81
77693;SHT31;66984;47.404;18.836;2023-04-03T03:30:37;6.97;61.50
77693;SHT31;66984;47.404;18.836;2023-04-03T03:31:40;6.91;61.53
77693;SHT31;66984;47.404;18.836;2023-04-03T03:32:43;6.95;61.94
77693;SHT31;66984;47.404;18.836;2023-04-03T03:33:46;6.91;61.92
77693;SHT31;66984;47.404;18.836;2023-04-03T03:34:50;6.88;62.31
77693;SHT31;66984;47.404;18.836;2023-04-03T03:35:54;6.88;62.14
77693;SHT31;66984;47.404;18.836;2023-04-03T03:36:57;6.88;62.11
77693;SHT31;66984;47.404;18.836;2023-04-03T03:38:00;6.85;62.27
77693;SHT31;66984;47.404;18.836;2023-04-03T03:39:03;6.81;62.13
77693;SHT31;66984;47.404;18.836;2023-04-03T03:40:07;6.81;62.30
77693;SHT31;66984;47.404;18.836;2023-04-03T03:41:10;6.81;62.40
77693;SHT31;66984;47.404;18.836;2023-04-03T03:42:12;6.81;62.72
77693;SHT31;66984;47.404;18.836;2023-04-03T03:43:16;6.82;62.43
77693;SHT31;66984;47.404;18.836;2023-04-03T03:44:20;6.82;62.82
77693;SHT31;66984;47.404;18.836;2023-04-03T03:45:23;6.82;62.62
77693;SHT31;66984;47.404;18.836;2023-04-03T03:46:26;6.83;62.52
77693;SHT31;66984;47.404;18.836;2023-04-03T03:47:29;6.82;62.32
77693;SHT31;66984;47.404;18.836;2023-04-03T03:48:32;6.81;62.44
77693;SHT31;66984;47.404;18.836;2023-04-03T03:49:35;6.76;62.55
77693;SHT31;66984;47.404;18.836;2023-04-03T03:50:37;6.69;62.80
77693;SHT31;66984;47.404;18.836;2023-04-03T03:51:40;6.71;63.00
77693;SHT31;66984;47.404;18.836;2023-04-03T03:52:43;6.72;62.95
77693;SHT31;66984;47.404;18.836;2023-04-03T03:53:47;6.65;62.77
77693;SHT31;66984;47.404;18.836;2023-04-03T03:54:50;6.62;62.95
77693;SHT31;66984;47.404;18.836;2023-04-03T03:55:53;6.68;63.02
77693;SHT31;66984;47.404;18.836;2023-04-03T03:56:55;6.64;63.12
77693;SHT31;66984;47.404;18.836;2023-04-03T03:57:58;6.62;62.99
77693;SHT31;66984;47.404;18.836;2023-04-03T03:59:02;6.58;63.11
77693;SHT31;66984;47.404;18.836;2023-04-03T04:00:06;6.56;63.15
77693;SHT31;66984;47.404;18.836;2023-04-03T04:01:09;6.59;63.37
77693;SHT31;66984;47.404;18.836;2023-04-03T04:02:12;6.64;64.32
77693;SHT31;66984;47.404;18.836;2023-04-03T04:03:15;6.65;63.58
77693;SHT31;66984;47.404;18.836;2023-04-03T04:04:18;6.65;63.47
77693;SHT31;66984;47.404;18.836;2023-04-03T04:05:22;6.62;63.06
77693;SHT31;66984;47.404;18.836;2023-04-03T04:06:25;6.67;63.20
77693;SHT31;66984;47.404;18.836;2023-04-03T04:07:28;6.67;63.29
77693;SHT31;66984;47.404;18.836;2023-04-03T04:08:32;6.67;62.93
77693;SHT31;66984;47.404;18.836;2023-04-03T04:09:34;6.68;63.21
77693;SHT31;66984;47.404;18.836;2023-04-03T04:10:38;6.69;62.99
77693;SHT31;66984;47.404;18.836;2023-04-03T04:11:41;6.65;62.98
77693;SHT31;66984;47.404;18.836;2023-04-03T04:12:44;6.61;63.00
77693;SHT31;66984;47.404;18.836;2023-04-03T04:13:47;6.58;63.04
77693;SHT31;66984;47.404;18.836;2023-04-03T04:14:50;6.59;63.51
77693;SHT31;66984;47.404;18.836;2023-04-03T04:15:52;6.58;63.26
77693;SHT31;66984;47.404;18.836;2023-04-03T04:16:55;6.54;63.07
77693;SHT31;66984;47.404;18.836;2023-04-03T04:17:58;6.54;63.13
77693;SHT31;66984;47.404;18.836;2023-04-03T04:19:01;6.51;63.05
77693;SHT31;66984;47.404;18.836;2023-04-03T04:20:07;6.48;63.31
77693;SHT31;66984;47.404;18.836;2023-04-03T04:21:11;6.45;63.73
77693;SHT31;66984;47.404;18.836;2023-04-03T04:22:14;6.42;63.74
77693;SHT31;66984;47.404;18.836;2023-04-03T04:23:17;6.33;63.72
77693;SHT31;66984;47.404;18.836;2023-04-03T04:24:20;6.33;63.70
77693;SHT31;66984;47.404;18.836;2023-04-03T04:25:25;6.34;63.84
77693;SHT31;66984;47.404;18.836;2023-04-03T04:26:28;6.34;63.93
77693;SHT31;66984;47.404;18.836;2023-04-03T04:27:31;6.33;63.90
77693;SHT31;66984;47.404;18.836;2023-04-03T04:28:34;6.34;63.91
77693;SHT31;66984;47.404;18.836;2023-04-03T04:29:37;6.34;63.38
77693;SHT31;66984;47.404;18.836;2023-04-03T04:30:40;6.31;63.72
77693;SHT31;66984;47.404;18.836;2023-04-03T04:31:43;6.31;63.96
77693;SHT31;66984;47.404;18.836;2023-04-03T04:32:46;6.31;63.64
77693;SHT31;66984;47.404;18.836;2023-04-03T04:33:49;6.31;63.72
77693;SHT31;66984;47.404;18.836;2023-04-03T04:34:52;6.33;63.72
77693;SHT31;66984;47.404;18.836;2023-04-03T04:35:55;6.30;63.61
77693;SHT31;66984;47.404;18.836;2023-04-03T04:36:58;6.31;63.87
77693;SHT31;66984;47.404;18.836;2023-04-03T04:38:02;6.30;63.77
77693;SHT31;66984;47.404;18.836;2023-04-03T04:39:05;6.27;63.72
77693;SHT31;66984;47.404;18.836;2023-04-03T04:40:08;6.24;63.65
77693;SHT31;66984;47.404;18.836;2023-04-03T04:41:12;6.20;63.94
77693;SHT31;66984;47.404;18.836;2023-04-03T04:42:15;6.16;63.97
77693;SHT31;66984;47.404;18.836;2023-04-03T04:43:18;6.17;63.99
77693;SHT31;66984;47.404;18.836;2023-04-03T04:44:21;6.14;63.88
77693;SHT31;66984;47.404;18.836;2023-04-03T04:45:24;6.11;64.13
77693;SHT31;66984;47.404;18.836;2023-04-03T04:46:27;6.14;64.38
77693;SHT31;66984;47.404;18.836;2023-04-03T04:47:30;6.18;64.33
77693;SHT31;66984;47.404;18.836;2023-04-03T04:48:34;6.13;64.15
77693;SHT31;66984;47.404;18.836;2023-04-03T04:49:37;6.13;64.15
77693;SHT31;66984;47.404;18.836;2023-04-03T04:50:40;6.14;64.28
77693;SHT31;66984;47.404;18.836;2023-04-03T04:51:43;6.13;64.34
77693;SHT31;66984;47.404;18.836;2023-04-03T04:52:52;6.13;64.29
77693;SHT31;66984;47.404;18.836;2023-04-03T04:53:55;6.17;64.38
77693;SHT31;66984;47.404;18.836;2023-04-03T04:54:58;6.17;64.15
77693;SHT31;66984;47.404;18.836;2023-04-03T04:56:02;6.11;64.42
77693;SHT31;66984;47.404;18.836;2023-04-03T04:57:05;6.18;64.24
77693;SHT31;66984;47.404;18.836;2023-04-03T04:58:08;6.16;64.21
77693;SHT31;66984;47.404;18.836;2023-04-03T04:59:11;6.09;64.16
77693;SHT31;66984;47.404;18.836;2023-04-03T05:00:14;6.06;64.39
77693;SHT31;66984;47.404;18.836;2023-04-03T05:01:17;6.04;64.44
77693;SHT31;66984;47.404;18.836;2023-04-03T05:02:21;6.02;64.69
77693;SHT31;66984;47.404;18.836;2023-04-03T05:03:24;5.97;64.80
77693;SHT31;66984;47.404;18.836;2023-04-03T05:04:26;5.97;65.04
77693;SHT31;66984;47.404;18.836;2023-04-03T05:05:29;5.97;64.85
77693;SHT31;66984;47.404;18.836;2023-04-03T05:06:32;5.99;64.87
77693;SHT31;66984;47.404;18.836;2023-04-03T05:07:37;5.97;64.74
77693;SHT31;66984;47.404;18.836;2023-04-03T05:08:40;5.94;64.82
77693;SHT31;66984;47.404;18.836;2023-04-03T05:09:43;6.02;65.11
77693;SHT31;66984;47.404;18.836;2023-04-03T05:10:47;6.02;65.43
77693;SHT31;66984;47.404;18.836;2023-04-03T05:11:50;6.07;65.23
77693;SHT31;66984;47.404;18.836;2023-04-03T05:12:53;6.09;64.68
77693;SHT31;66984;47.404;18.836;2023-04-03T05:13:56;6.09;65.16
77693;SHT31;66984;47.404;18.836;2023-04-03T05:14:59;6.09;64.63
77693;SHT31;66984;47.404;18.836;2023-04-03T05:16:02;6.10;64.83
77693;SHT31;66984;47.404;18.836;2023-04-03T05:17:05;6.13;64.99
77693;SHT31;66984;47.404;18.836;2023-04-03T05:18:08;6.13;64.89
77693;SHT31;66984;47.404;18.836;2023-04-03T05:19:12;6.17;65.02
77693;SHT31;66984;47.404;18.836;2023-04-03T05:20:15;6.23;64.63
77693;SHT31;66984;47.404;18.836;2023-04-03T05:21:18;6.21;64.79
77693;SHT31;66984;47.404;18.836;2023-04-03T05:22:21;6.21;65.10
77693;SHT31;66984;47.404;18.836;2023-04-03T05:23:24;6.30;64.63
77693;SHT31;66984;47.404;18.836;2023-04-03T05:24:27;6.28;64.42
77693;SHT31;66984;47.404;18.836;2023-04-03T05:25:30;6.23;64.35
77693;SHT31;66984;47.404;18.836;2023-04-03T05:26:33;6.17;64.29
77693;SHT31;66984;47.404;18.836;2023-04-03T05:27:36;6.17;64.20
77693;SHT31;66984;47.404;18.836;2023-04-03T05:28:39;6.16;64.52
77693;SHT31;66984;47.404;18.836;2023-04-03T05:29:42;6.20;64.81
77693;SHT31;66984;47.404;18.836;2023-04-03T05:30:53;6.24;64.60
77693;SHT31;66984;47.404;18.836;2023-04-03T05:31:57;6.25;64.56
77693;SHT31;66984;47.404;18.836;2023-04-03T05:33:00;6.24;64.45
77693;SHT31;66984;47.404;18.836;2023-04-03T05:34:03;6.30;64.30
77693;SHT31;66984;47.404;18.836;2023-04-03T05:35:06;6.30;64.67
77693;SHT31;66984;47.404;18.836;2023-04-03T05:36:10;6.34;65.10
77693;SHT31;66984;47.404;18.836;2023-04-03T05:37:13;6.34;64.63
77693;SHT31;66984;47.404;18.836;2023-04-03T05:38:16;6.34;64.08
77693;SHT31;66984;47.404;18.836;2023-04-03T05:39:19;6.34;64.33
77693;SHT31;66984;47.404;18.836;2023-04-03T05:40:22;6.35;64.54
77693;SHT31;66984;47.404;18.836;2023-04-03T05:41:24;6.41;64.07
77693;SHT31;66984;47.404;18.836;2023-04-03T05:42:27;6.38;63.87
77693;SHT31;66984;47.404;18.836;2023-04-03T05:43:30;6.40;63.87
77693;SHT31;66984;47.404;18.836;2023-04-03T05:44:33;6.34;63.63
77693;SHT31;66984;47.404;18.836;2023-04-03T05:45:36;6.25;63.65
77693;SHT31;66984;47.404;18.836;2023-04-03T05:46:39;6.23;63.87
77693;SHT31;66984;47.404;18.836;2023-04-03T05:47:42;6.27;64.13
77693;SHT31;66984;47.404;18.836;2023-04-03T05:48:44;6.21;63.92
77693;SHT31;66984;47.404;18.836;2023-04-03T05:49:47;6.23;64.79
77693;SHT31;66984;47.404;18.836;2023-04-03T05:50:50;6.11;64.17
77693;SHT31;66984;47.404;18.836;2023-04-03T05:51:56;6.10;64.29
77693;SHT31;66984;47.404;18.836;2023-04-03T05:53:00;6.09;64.71
77693;SHT31;66984;47.404;18.836;2023-04-03T05:54:21;6.02;64.68
77693;SHT31;66984;47.404;18.836;2023-04-03T05:55:25;6.04;65.07
77693;SHT31;66984;47.404;18.836;2023-04-03T05:56:28;6.02;64.72
77693;SHT31;66984;47.404;18.836;2023-04-03T05:57:31;6.04;64.88
77693;SHT31;66984;47.404;18.836;2023-04-03T05:58:34;5.99;64.84
77693;SHT31;66984;47.404;18.836;2023-04-03T05:59:37;5.92;64.87
77693;SHT31;66984;47.404;18.836;2023-04-03T06:00:40;5.90;65.15
77693;SHT31;66984;47.404;18.836;2023-04-03T06:01:43;5.96;65.13
77693;SHT31;66984;47.404;18.836;2023-04-03T06:02:46;5.97;65.24
77693;SHT31;66984;47.404;18.836;2023-04-03T06:03:49;5.96;65.04
77693;SHT31;66984;47.404;18.836;2023-04-03T06:04:53;5.97;65.17
77693;SHT31;66984;47.404;18.836;2023-04-03T06:05:59;5.97;65.37
77693;SHT31;66984;47.404;18.836;2023-04-03T06:07:02;5.99;65.21
77693;SHT31;66984;47.404;18.836;2023-04-03T06:08:05;5.97;65.51
77693;SHT31;66984;47.404;18.836;2023-04-03T06:09:08;6.04;65.53
77693;SHT31;66984;47.404;18.836;2023-04-03T06:10:12;6.07;65.54
77693;SHT31;66984;47.404;18.836;2023-04-03T06:11:16;6.13;65.28
77693;SHT31;66984;47.404;18.836;2023-04-03T06:12:19;6.18;65.45
77693;SHT31;66984;47.404;18.836;2023-04-03T06:13:22;6.25;65.18
77693;SHT31;66984;47.404;18.836;2023-04-03T06:14:27;6.24;64.36
77693;SHT31;66984;47.404;18.836;2023-04-03T06:15:30;6.24;64.61
77693;SHT31;66984;47.404;18.836;2023-04-03T06:16:33;6.34;64.89
77693;SHT31;66984;47.404;18.836;2023-04-03T06:17:40;6.38;63.89
77693;SHT31;66984;47.404;18.836;2023-04-03T06:18:43;6.41;64.11
77693;SHT31;66984;47.404;18.836;2023-04-03T06:19:46;6.48;64.13
77693;SHT31;66984;47.404;18.836;2023-04-03T06:20:49;6.58;64.27
77693;SHT31;66984;47.404;18.836;2023-04-03T06:21:52;6.62;63.58
77693;SHT31;66984;47.404;18.836;2023-04-03T06:22:55;6.68;63.62
77693;SHT31;66984;47.404;18.836;2023-04-03T06:23:58;6.79;63.41
77693;SHT31;66984;47.404;18.836;2023-04-03T06:25:01;6.83;63.36
77693;SHT31;66984;47.404;18.836;2023-04-03T06:26:03;6.95;62.46
77693;SHT31;66984;47.404;18.836;2023-04-03T06:27:09;6.95;62.29
77693;SHT31;66984;47.404;18.836;2023-04-03T06:28:13;6.97;62.23
77693;SHT31;66984;47.404;18.836;2023-04-03T06:29:16;6.97;61.67
77693;SHT31;66984;47.404;18.836;2023-04-03T06:30:19;7.03;62.06
77693;SHT31;66984;47.404;18.836;2023-04-03T06:31:22;7.03;61.16
77693;SHT31;66984;47.404;18.836;2023-04-03T06:32:25;7.10;61.28
77693;SHT31;66984;47.404;18.836;2023-04-03T06:33:28;7.16;61.97
77693;SHT31;66984;47.404;18.836;2023-04-03T06:34:31;7.19;61.47
77693;SHT31;66984;47.404;18.836;2023-04-03T06:35:34;7.27;61.43
77693;SHT31;66984;47.404;18.836;2023-04-03T06:36:38;7.31;60.81
77693;SHT31;66984;47.404;18.836;2023-04-03T06:37:41;7.38;61.17
77693;SHT31;66984;47.404;18.836;2023-04-03T06:38:44;7.43;60.86
77693;SHT31;66984;47.404;18.836;2023-04-03T06:39:47;7.48;60.90
77693;SHT31;66984;47.404;18.836;2023-04-03T06:40:50;7.54;61.03
77693;SHT31;66984;47.404;18.836;2023-04-03T06:41:54;7.57;60.02
77693;SHT31;66984;47.404;18.836;2023-04-03T06:42:57;7.61;59.78
77693;SHT31;66984;47.404;18.836;2023-04-03T06:44:00;7.57;59.88
77693;SHT31;66984;47.404;18.836;2023-04-03T06:45:03;7.60;59.87
77693;SHT31;66984;47.404;18.836;2023-04-03T06:46:06;7.62;60.04
77693;SHT31;66984;47.404;18.836;2023-04-03T06:47:14;7.68;59.84
77693;SHT31;66984;47.404;18.836;2023-04-03T06:48:17;7.68;59.79